Time;durP1;ratioP1;P1;durP2;ratioP2;P2;SDS_P1;SDS_P2;PMS_P1;PMS_P2;Temp;Humidity;BMP_temperature;BMP_pressure;BME280_temperature;BME280_humidity;BME280_pressure;Samples;Min_cycle;Max_cycle;Signal;HPM_P1;HPM_P2
2023/05/12 00:02:18;;;;;;;3.63;3.33;;;;;;;13.60;90.35;98679.63;4951341;28;42528;-78
2023/05/12 00:04:46;;;;;;;4.20;3.57;;;;;;;13.58;90.36;98670.94;4952052;28;43744;-79
2023/05/12 00:07:13;;;;;;;3.37;3.07;;;;;;;13.58;90.11;98676.28;4934946;28;42384;-78
2023/05/12 00:09:41;;;;;;;3.90;3.47;;;;;;;13.57;90.32;98682.56;4934548;28;40804;-78
2023/05/12 00:12:09;;;;;;;3.93;3.63;;;;;;;13.58;90.19;98677.13;4919344;28;40630;-79
2023/05/12 00:14:37;;;;;;;4.20;3.60;;;;;;;13.43;90.63;98658.84;4934726;28;41780;-78
2023/05/12 00:17:05;;;;;;;5.03;4.00;;;;;;;13.54;90.72;98674.81;4951056;28;42246;-79
2023/05/12 00:19:35;;;;;;;3.80;3.50;;;;;;;13.51;90.71;98680.34;4935080;28;39615;-78
2023/05/12 00:22:02;;;;;;;4.60;4.20;;;;;;;13.50;90.73;98673.34;4955211;28;41967;-79
2023/05/12 00:24:30;;;;;;;3.70;3.40;;;;;;;13.47;91.09;98676.25;4955207;28;42967;-79
2023/05/12 00:26:57;;;;;;;4.97;4.50;;;;;;;13.46;91.11;98671.91;4938346;28;41217;-79
2023/05/12 00:29:25;;;;;;;3.83;3.53;;;;;;;13.43;91.45;98666.81;4938053;28;39149;-78
2023/05/12 00:31:53;;;;;;;4.53;4.13;;;;;;;13.36;91.42;98654.94;4922326;28;40925;-79
2023/05/12 00:34:20;;;;;;;4.00;3.70;;;;;;;13.43;91.30;98667.66;4921947;28;42590;-79
2023/05/12 00:36:49;;;;;;;3.90;3.60;;;;;;;13.46;91.08;98672.75;4954053;28;42380;-79
2023/05/12 00:39:17;;;;;;;4.33;3.93;;;;;;;13.46;91.23;98671.91;4938014;28;40622;-78
2023/05/12 00:41:46;;;;;;;4.30;3.87;;;;;;;13.44;91.48;98668.50;4938131;28;41896;-79
2023/05/12 00:44:14;;;;;;;4.60;4.20;;;;;;;13.43;91.35;98666.81;4937742;28;41908;-78
2023/05/12 00:46:42;;;;;;;4.80;4.30;;;;;;;13.40;91.43;98667.03;4937818;28;42255;-78
2023/05/12 00:49:10;;;;;;;6.00;4.33;;;;;;;13.40;91.74;98665.22;4937679;28;39319;-79
2023/05/12 00:51:38;;;;;;;4.33;3.90;;;;;;;13.16;91.53;98622.75;4937763;28;41794;-79
2023/05/12 00:54:07;;;;;;;4.33;3.93;;;;;;;13.44;91.32;98665.84;4921581;28;41723;-79
2023/05/12 00:56:38;;;;;;;4.20;3.80;;;;;;;13.44;91.60;98661.38;4937562;28;42098;-79
2023/05/12 00:59:07;;;;;;;4.03;3.73;;;;;;;13.46;91.31;98666.59;4937389;28;40253;-79
2023/05/12 01:01:36;;;;;;;5.13;3.97;;;;;;;13.38;90.90;98647.69;4953828;28;40794;-80
2023/05/12 01:04:04;;;;;;;5.43;4.30;;;;;;;13.46;91.44;98661.25;4953546;28;42825;-79
2023/05/12 01:06:38;;;;;;;4.00;3.70;;;;;;;13.47;91.25;98654.97;4953849;28;42253;-79
2023/05/12 01:09:09;;;;;;;4.60;4.20;;;;;;;13.43;91.67;98662.34;4937819;28;40058;-79
2023/05/12 01:11:38;;;;;;;4.20;3.80;;;;;;;13.30;91.28;98646.47;4921803;28;40533;-79
2023/05/12 01:14:06;;;;;;;4.03;3.73;;;;;;;13.40;91.31;98667.03;4953413;28;41934;-79
2023/05/12 01:16:39;;;;;;;4.20;3.80;;;;;;;13.38;91.57;98666.31;4921709;28;42245;-78
2023/05/12 01:19:15;;;;;;;5.07;4.17;;;;;;;13.36;91.82;98665.56;4936925;28;40273;-79
2023/05/12 01:21:43;;;;;;;4.73;4.37;;;;;;;13.34;91.95;98663.06;4920965;28;40446;-80
2023/05/12 01:24:13;;;;;;;5.70;3.87;;;;;;;13.35;92.01;98663.91;4921480;28;41927;-78
2023/05/12 01:26:42;;;;;;;5.20;4.80;;;;;;;13.35;91.74;98662.09;4937155;28;42288;-80
2023/05/12 01:29:11;;;;;;;5.33;4.40;;;;;;;13.33;91.71;98655.19;4937406;28;40951;-79
2023/05/12 01:31:39;;;;;;;4.47;4.07;;;;;;;13.33;91.78;98666.69;4920775;28;40830;-78
2023/05/12 01:34:56;;;;;;;5.07;4.67;;;;;;;13.32;92.02;98670.31;4937141;28;44273;-79
2023/05/12 01:41:02;;;;;;;4.70;4.17;;;;;;;13.22;91.96;98664.00;4936745;28;39926;-78
2023/05/12 01:43:31;;;;;;;5.23;3.83;;;;;;;13.13;92.35;98646.88;4936598;28;41831;-79
2023/05/12 01:45:59;;;;;;;4.23;3.87;;;;;;;13.25;92.11;98667.25;4953269;28;42810;-79
2023/05/12 01:48:27;;;;;;;4.80;4.30;;;;;;;13.27;92.05;98667.13;4936883;28;43096;-79
2023/05/12 01:50:59;;;;;;;4.87;4.47;;;;;;;13.29;91.57;98666.06;4952913;28;41171;-78
2023/05/12 01:53:29;;;;;;;4.17;3.73;;;;;;;13.32;91.57;98670.31;4936580;28;41835;-79
2023/05/12 01:55:57;;;;;;;4.87;4.47;;;;;;;13.32;91.26;98677.44;4920978;28;41734;-79
2023/05/12 01:58:26;;;;;;;5.57;4.33;;;;;;;13.31;91.87;98676.59;4936901;28;41998;-80
2023/05/12 02:00:55;;;;;;;4.10;3.80;;;;;;;13.32;91.60;98680.09;4936806;28;39077;-79
2023/05/12 02:03:24;;;;;;;4.97;4.40;;;;;;;13.32;91.44;98680.09;4920646;28;40687;-79
2023/05/12 02:05:51;;;;;;;5.47;4.57;;;;;;;13.32;91.65;98680.94;4936716;28;41913;-79
2023/05/12 02:08:20;;;;;;;4.37;4.00;;;;;;;13.32;91.12;98680.09;4920813;28;42269;-79
2023/05/12 02:10:47;;;;;;;4.20;3.90;;;;;;;13.29;91.55;98681.16;4937020;28;39983;-79
2023/05/12 02:13:15;;;;;;;4.73;4.33;;;;;;;13.27;91.84;98686.59;4920232;28;41823;-79
2023/05/12 02:15:42;;;;;;;4.63;4.20;;;;;;;13.28;91.42;98677.66;4920618;28;43118;-79
2023/05/12 02:18:11;;;;;;;4.97;4.30;;;;;;;13.28;91.51;98685.63;4936641;28;43246;-79
2023/05/12 02:20:40;;;;;;;4.53;4.23;;;;;;;13.28;91.59;98690.09;4920578;28;38611;-79
2023/05/12 02:23:09;;;;;;;4.30;3.90;;;;;;;13.26;91.10;98687.56;4952288;28;43003;-79
2023/05/12 02:25:37;;;;;;;4.10;3.67;;;;;;;13.26;91.39;98682.25;4920736;28;41653;-80
2023/05/12 02:28:06;;;;;;;4.70;4.30;;;;;;;13.26;91.66;98682.25;4950190;28;43188;-80
2023/05/12 02:30:34;;;;;;;4.67;4.27;;;;;;;13.25;92.10;98677.03;4952721;28;40078;-78
2023/05/12 02:33:04;;;;;;;5.60;4.47;;;;;;;13.18;92.16;98674.00;4918308;28;40597;-79
2023/05/12 02:35:33;;;;;;;4.57;4.17;;;;;;;13.22;91.97;98688.78;4936242;28;41748;-79
2023/05/12 02:38:01;;;;;;;6.30;3.93;;;;;;;13.23;92.01;98679.81;4934068;28;41381;-80
2023/05/12 02:40:28;;;;;;;4.33;3.97;;;;;;;13.13;91.90;98662.81;4956106;28;40870;-80
2023/05/12 02:42:57;;;;;;;4.87;4.30;;;;;;;13.09;91.71;98663.19;4938575;28;40869;-80
2023/05/12 02:45:25;;;;;;;4.93;4.43;;;;;;;13.19;92.05;98675.72;4939530;28;42837;-78
2023/05/12 02:47:52;;;;;;;4.53;4.07;;;;;;;13.20;91.62;98672.09;4955518;28;42966;-80
2023/05/12 02:50:20;;;;;;;4.43;4.10;;;;;;;13.20;91.66;98676.56;4955886;28;40263;-78
2023/05/12 02:52:50;;;;;;;6.50;4.90;;;;;;;13.20;91.49;98671.25;4952080;28;41844;-79
2023/05/12 02:55:18;;;;;;;5.10;4.17;;;;;;;13.19;91.57;98675.72;4952524;28;42860;-79
2023/05/12 02:57:45;;;;;;;4.03;3.73;;;;;;;13.19;91.48;98673.06;4934071;28;41041;-79
2023/05/12 03:00:14;;;;;;;4.47;4.07;;;;;;;13.19;91.56;98670.38;4955888;28;40351;-79
2023/05/12 03:02:41;;;;;;;4.30;3.90;;;;;;;13.18;91.38;98674.00;4941193;28;42146;-78
2023/05/12 03:05:09;;;;;;;4.37;3.97;;;;;;;13.18;91.12;98666.03;4935916;28;42145;-80
2023/05/12 03:07:38;;;;;;;4.33;3.93;;;;;;;13.09;91.16;98657.88;4929776;28;41248;-80
2023/05/12 03:10:09;;;;;;;4.33;3.93;;;;;;;13.18;91.01;98674.00;4936136;28;39093;-78
2023/05/12 03:12:36;;;;;;;4.00;3.70;;;;;;;13.16;91.44;98665.28;4932701;28;41103;-80
2023/05/12 03:15:05;;;;;;;4.33;4.00;;;;;;;13.14;91.59;98672.53;4971252;28;42733;-79
2023/05/12 03:17:33;;;;;;;4.10;3.80;;;;;;;13.11;91.33;98672.72;4935506;28;41366;-79
2023/05/12 03:20:01;;;;;;;4.00;3.70;;;;;;;13.04;91.03;98660.88;4953393;28;40203;-79
2023/05/12 03:22:38;;;;;;;4.33;3.67;;;;;;;13.10;91.23;98675.53;4931052;28;41714;-77
2023/05/12 03:25:15;;;;;;;4.27;3.87;;;;;;;13.08;91.36;98675.66;4939055;28;41777;-79
2023/05/12 03:31:48;;;;;;;4.87;4.37;;;;;;;13.05;91.41;98672.34;4964470;28;40926;-79
2023/05/12 03:34:15;;;;;;;5.20;4.70;;;;;;;12.95;91.32;98656.25;4938765;28;41105;-79
2023/05/12 03:36:44;;;;;;;4.53;4.13;;;;;;;13.02;91.69;98670.78;4951047;28;42642;-80
2023/05/12 03:39:12;;;;;;;5.00;4.50;;;;;;;13.04;91.54;98671.50;4935719;28;43251;-80
2023/05/12 03:41:41;;;;;;;6.60;4.93;;;;;;;13.05;91.11;98673.22;4954364;28;40234;-80
2023/05/12 03:44:08;;;;;;;5.10;4.67;;;;;;;13.06;91.36;98672.25;4954941;28;41909;-80
2023/05/12 03:46:36;;;;;;;4.37;3.90;;;;;;;13.09;90.94;98672.03;4951104;28;43820;-80
2023/05/12 03:49:03;;;;;;;4.73;4.33;;;;;;;13.08;91.59;98667.66;4951576;28;43015;-79
2023/05/12 03:51:31;;;;;;;5.33;4.80;;;;;;;13.09;91.59;98669.38;4923426;28;39011;-80
2023/05/12 03:53:59;;;;;;;5.27;4.17;;;;;;;13.09;91.85;98669.38;4939148;28;40737;-79
2023/05/12 03:56:27;;;;;;;4.40;4.00;;;;;;;13.05;92.20;98667.91;4937819;28;41732;-80
2023/05/12 03:58:57;;;;;;;5.57;4.60;;;;;;;13.04;92.58;98673.31;4938322;28;41229;-79
2023/05/12 04:01:24;;;;;;;5.20;4.80;;;;;;;13.04;92.46;98670.66;4922322;28;39001;-79
2023/05/12 04:03:52;;;;;;;5.07;4.63;;;;;;;13.03;92.50;98672.47;4954354;28;41776;-78
2023/05/12 04:06:19;;;;;;;9.23;5.03;;;;;;;13.04;92.58;98673.31;4925004;28;44084;-80
2023/05/12 04:08:47;;;;;;;4.83;4.43;;;;;;;12.99;92.56;98662.16;4957978;28;42144;-85
2023/05/12 04:11:14;;;;;;;5.20;4.80;;;;;;;13.04;92.99;98676.81;4958318;28;40687;-82
2023/05/12 04:13:42;;;;;;;5.47;5.03;;;;;;;13.05;93.07;98675.88;4941641;28;42039;-80
2023/05/12 04:16:11;;;;;;;5.07;4.67;;;;;;;13.02;93.01;98667.28;4957680;28;42812;-82
2023/05/12 04:18:39;;;;;;;5.00;4.60;;;;;;;13.09;93.12;98677.34;4941522;28;41308;-84
2023/05/12 04:21:08;;;;;;;5.00;4.60;;;;;;;13.04;92.83;98660.88;4941613;28;39904;-83
2023/05/12 04:23:36;;;;;;;5.20;4.70;;;;;;;13.13;92.95;98681.44;4941210;28;40563;-82
2023/05/12 04:26:05;;;;;;;8.00;4.87;;;;;;;13.16;92.92;98678.59;4973960;28;42723;-84
2023/05/12 04:28:32;;;;;;;5.73;5.23;;;;;;;13.18;92.59;98686.47;4957594;28;42347;-82
2023/05/12 04:31:02;;;;;;;5.80;5.23;;;;;;;13.17;92.62;98677.63;4973472;28;39858;-79
2023/05/12 04:33:31;;;;;;;6.03;5.03;;;;;;;13.21;92.86;98684.41;4957146;28;41544;-79
2023/05/12 04:35:59;;;;;;;6.53;5.47;;;;;;;13.25;92.51;98685.84;4973313;28;42564;-78
2023/05/12 04:38:27;;;;;;;5.40;5.00;;;;;;;13.32;92.55;98685.41;4941172;28;42252;-78
2023/05/12 04:40:58;;;;;;;4.97;4.53;;;;;;;13.35;92.27;98685.19;4941188;28;40061;-78
2023/05/12 04:43:25;;;;;;;6.03;5.43;;;;;;;13.35;92.19;98679.88;4970854;28;41827;-79
2023/05/12 04:45:54;;;;;;;5.40;4.97;;;;;;;13.43;92.03;98688.94;4973262;28;42852;-78
2023/05/12 04:48:21;;;;;;;4.97;4.57;;;;;;;13.47;91.97;98689.56;4937221;28;41256;-78
2023/05/12 04:50:50;;;;;;;5.53;5.00;;;;;;;13.50;91.64;98694.63;4921730;28;40464;-78
2023/05/12 04:53:18;;;;;;;7.50;4.90;;;;;;;13.52;91.52;98688.22;4956125;28;41755;-80
2023/05/12 04:55:45;;;;;;;5.87;5.33;;;;;;;13.55;92.18;98692.47;4941432;28;43226;-83
2023/05/12 04:58:13;;;;;;;5.60;5.10;;;;;;;13.54;91.81;98685.44;4954066;28;43222;-84
2023/05/12 05:00:41;;;;;;;7.13;4.90;;;;;;;13.50;91.80;98694.63;4922235;28;38767;-83
2023/05/12 05:03:08;;;;;;;6.47;5.47;;;;;;;13.44;91.71;98681.81;4939129;28;41179;-84
2023/05/12 05:05:36;;;;;;;4.93;4.53;;;;;;;13.56;91.36;98699.50;4956577;28;43741;-82
2023/05/12 05:08:05;;;;;;;5.90;5.40;;;;;;;13.57;91.54;98696.72;4937433;28;41396;-82
2023/05/12 05:10:33;;;;;;;6.03;5.43;;;;;;;13.61;91.31;98702.63;4938299;28;40907;-85
2023/05/12 05:13:01;;;;;;;5.20;4.80;;;;;;;13.64;91.44;98702.41;4954198;28;41802;-83
2023/05/12 05:15:28;;;;;;;5.47;5.07;;;;;;;13.72;91.27;98700.00;4957448;28;42833;-84
2023/05/12 05:17:56;;;;;;;5.13;4.63;;;;;;;13.68;90.87;98687.03;4925280;28;40879;-83
2023/05/12 05:20:24;;;;;;;5.90;5.03;;;;;;;13.74;90.92;98703.38;4938230;28;39735;-82
2023/05/12 05:22:51;;;;;;;5.73;5.20;;;;;;;13.76;90.86;98712.09;4932663;28;41978;-84
2023/05/12 05:25:22;;;;;;;5.67;5.17;;;;;;;13.74;90.74;98714.00;4922566;28;41565;-82
2023/05/12 05:27:50;;;;;;;6.20;5.13;;;;;;;13.74;91.04;98716.69;4937396;28;41317;-84
2023/05/12 05:30:18;;;;;;;6.10;5.60;;;;;;;13.63;90.48;98700.69;4922247;28;38961;-84
2023/05/12 05:32:46;;;;;;;5.60;5.07;;;;;;;13.62;90.45;98693.69;4951066;28;41840;-89
2023/05/12 05:35:13;;;;;;;5.57;5.07;;;;;;;13.64;90.49;98702.41;4973491;28;43739;-84
2023/05/12 05:37:46;;;;;;;5.27;4.87;;;;;;;13.73;90.29;98717.63;4950547;28;43261;-82
2023/05/12 05:40:13;;;;;;;5.27;4.77;;;;;;;13.64;90.09;98702.41;4938111;28;40653;-85
2023/05/12 05:42:42;;;;;;;6.37;5.37;;;;;;;13.66;90.19;98706.63;4950627;28;42542;-82
2023/05/12 05:45:11;;;;;;;5.37;4.87;;;;;;;13.66;89.86;98705.78;4941175;28;42735;-87
2023/05/12 05:47:40;;;;;;;5.67;5.17;;;;;;;13.75;89.60;98715.72;4940495;28;42145;-80
2023/05/12 05:50:09;;;;;;;5.77;5.27;;;;;;;13.71;89.83;98719.59;4940743;28;38775;-82
2023/05/12 05:52:40;;;;;;;6.20;5.60;;;;;;;13.82;89.51;98729.41;4936639;28;40657;-82
2023/05/12 05:55:09;;;;;;;5.90;5.00;;;;;;;13.76;89.70;98714.75;4937599;28;42802;-82
2023/05/12 05:57:36;;;;;;;6.33;5.73;;;;;;;13.92;89.14;98728.56;4933563;28;41617;-81
2023/05/12 06:00:08;;;;;;;5.70;5.20;;;;;;;13.94;88.73;98720.47;4956563;28;40754;-83
2023/05/12 06:02:45;;;;;;;5.63;4.90;;;;;;;14.07;89.07;98731.00;4950697;28;41974;-85
2023/05/12 06:05:17;;;;;;;5.83;5.10;;;;;;;14.08;88.82;98722.03;4953252;28;42656;-86
2023/05/12 06:07:45;;;;;;;6.17;5.57;;;;;;;14.02;88.67;98713.56;4947164;28;41424;-90
2023/05/12 06:10:12;;;;;;;7.27;5.47;;;;;;;14.12;88.40;98728.81;4947197;28;40490;-83
2023/05/12 06:12:40;;;;;;;6.10;5.50;;;;;;;14.02;88.09;98716.22;4926239;28;40724;-81
2023/05/12 06:15:10;;;;;;;6.67;6.03;;;;;;;14.08;88.25;98724.72;4921081;28;41963;-84
2023/05/12 06:17:38;;;;;;;6.80;6.20;;;;;;;14.03;87.88;98719.72;4933316;28;41174;-82
2023/05/12 06:20:07;;;;;;;6.20;5.67;;;;;;;14.01;88.20;98714.53;4940401;28;38884;-84
2023/05/12 06:22:35;;;;;;;6.63;5.53;;;;;;;14.19;88.28;98730.03;4952582;28;41812;-86
2023/05/12 06:25:02;;;;;;;5.90;5.17;;;;;;;14.31;87.94;98739.72;4921162;28;41687;-86
2023/05/12 06:27:31;;;;;;;6.70;6.10;;;;;;;14.36;87.90;98721.53;4933513;28;42653;-87
2023/05/12 06:29:59;;;;;;;6.03;5.43;;;;;;;14.62;87.81;98728.31;4940422;28;38777;-88
2023/05/12 06:32:28;;;;;;;5.93;5.43;;;;;;;14.73;87.18;98720.28;4936737;28;41178;-85
2023/05/12 06:34:56;;;;;;;7.50;5.93;;;;;;;15.04;86.07;98744.44;4937172;28;41552;-88
2023/05/12 06:37:24;;;;;;;5.70;5.20;;;;;;;15.21;86.33;98746.53;4933012;28;41174;-87
2023/05/12 06:39:52;;;;;;;6.63;6.03;;;;;;;15.24;84.86;98729.44;4940925;28;39632;-80
2023/05/12 06:42:19;;;;;;;5.90;5.30;;;;;;;15.43;85.13;98741.13;4952150;28;41859;-84
2023/05/12 06:44:51;;;;;;;6.57;4.83;;;;;;;15.54;84.73;98742.03;4952401;28;41821;-85
2023/05/12 06:47:21;;;;;;;5.90;5.40;;;;;;;15.56;83.13;98745.47;4936001;28;42428;-80
2023/05/12 06:49:51;;;;;;;5.50;4.90;;;;;;;15.52;82.64;98744.81;4920198;28;39595;-82
2023/05/12 06:52:19;;;;;;;5.60;5.00;;;;;;;15.33;82.81;98713.50;4946241;28;40628;-83
2023/05/12 06:54:47;;;;;;;5.23;4.73;;;;;;;15.46;82.64;98746.19;4939332;28;41712;-82
2023/05/12 06:57:14;;;;;;;5.73;5.13;;;;;;;15.49;82.08;98749.56;4945576;28;42462;-83
2023/05/12 06:59:42;;;;;;;5.47;4.93;;;;;;;15.60;82.59;98744.19;4936075;28;39970;-90
2023/05/12 07:02:09;;;;;;;6.23;5.23;;;;;;;15.63;81.44;98730.59;4945324;28;41832;-84
2023/05/12 07:04:37;;;;;;;5.07;4.67;;;;;;;15.81;81.71;98739.72;4939470;28;41808;-87
2023/05/12 07:07:06;;;;;;;5.20;4.80;;;;;;;15.82;81.33;98736.06;4939217;28;42196;-83
2023/05/12 07:09:33;;;;;;;6.37;5.50;;;;;;;15.76;80.87;98744.59;4955290;28;40081;-87
2023/05/12 07:12:01;;;;;;;6.57;4.87;;;;;;;15.70;81.51;98747.81;4930553;28;42087;-85
2023/05/12 07:14:28;;;;;;;5.70;5.17;;;;;;;15.61;81.65;98741.41;4920169;28;41827;-85
2023/05/12 07:16:56;;;;;;;5.20;4.80;;;;;;;15.66;81.13;98749.03;4940891;28;43409;-82
2023/05/12 07:19:24;;;;;;;4.77;4.37;;;;;;;15.71;80.34;98750.31;4935632;28;38997;-80
2023/05/12 07:21:51;;;;;;;6.07;5.37;;;;;;;15.79;79.78;98742.53;4959455;28;41815;-86
2023/05/12 07:24:20;;;;;;;5.17;4.60;;;;;;;16.11;79.07;98753.09;4954622;28;42827;-85
2023/05/12 07:26:47;;;;;;;5.13;4.63;;;;;;;16.50;78.17;98745.22;4947972;28;43072;-79
2023/05/12 07:29:15;;;;;;;5.77;4.80;;;;;;;16.74;77.43;98751.09;4934919;28;39318;-84
2023/05/12 07:31:43;;;;;;;4.93;4.43;;;;;;;16.99;76.65;98735.50;4940857;28;40739;-85
2023/05/12 07:34:10;;;;;;;5.50;5.00;;;;;;;17.20;75.17;98757.63;4938548;28;41818;-83
2023/05/12 07:36:38;;;;;;;4.93;4.50;;;;;;;17.28;74.54;98744.41;4954552;28;42273;-81
2023/05/12 07:39:05;;;;;;;5.90;4.57;;;;;;;17.45;73.59;98762.44;4938715;28;41072;-82
2023/05/12 07:41:34;;;;;;;5.07;4.67;;;;;;;17.70;74.62;98760.19;4950135;28;40708;-82
2023/05/12 07:44:02;;;;;;;5.13;4.73;;;;;;;17.71;71.77;98757.38;4935232;28;41618;-83
2023/05/12 07:46:30;;;;;;;4.80;4.40;;;;;;;17.79;71.60;98765.56;4939532;28;42281;-81
2023/05/12 07:48:57;;;;;;;4.50;4.10;;;;;;;17.90;71.17;98756.50;4938527;28;39344;-83
2023/05/12 07:51:25;;;;;;;4.80;4.20;;;;;;;18.09;70.42;98761.81;4938433;28;41836;-80
2023/05/12 07:53:54;;;;;;;4.67;4.27;;;;;;;18.04;70.57;98757.88;4954636;28;42491;-84
2023/05/12 07:56:21;;;;;;;5.00;4.20;;;;;;;18.04;71.18;98758.75;4952046;28;42598;-84
2023/05/12 07:58:51;;;;;;;4.53;3.90;;;;;;;17.94;70.27;98763.25;4935246;28;40003;-82
2023/05/12 08:01:19;;;;;;;5.10;4.60;;;;;;;18.03;70.48;98757.03;4937017;28;40921;-80
2023/05/12 08:03:46;;;;;;;4.37;3.97;;;;;;;18.24;70.57;98768.41;4954305;28;42344;-81
2023/05/12 08:06:14;;;;;;;4.87;4.17;;;;;;;18.28;69.09;98774.31;4968290;28;43181;-79
2023/05/12 08:08:42;;;;;;;5.53;3.60;;;;;;;18.30;70.24;98751.72;4919352;28;38993;-83
2023/05/12 08:11:10;;;;;;;4.60;4.13;;;;;;;18.28;69.20;98764.44;4919369;28;40876;-87
2023/05/12 08:13:37;;;;;;;4.30;3.87;;;;;;;18.24;69.90;98771.06;4952033;28;42894;-82
2023/05/12 08:16:07;;;;;;;4.20;3.80;;;;;;;18.11;69.91;98775.91;4936380;28;41199;-84
2023/05/12 08:18:34;;;;;;;4.03;3.73;;;;;;;17.82;70.46;98756.38;4972128;28;40772;-82
2023/05/12 08:21:02;;;;;;;4.20;3.90;;;;;;;17.72;70.74;98760.91;4954210;28;41821;-87
2023/05/12 08:23:29;;;;;;;4.20;3.90;;;;;;;17.68;71.99;98773.72;4918909;28;42781;-86
2023/05/12 08:25:57;;;;;;;4.53;3.93;;;;;;;17.49;71.70;98769.22;4935478;28;41098;-86
2023/05/12 08:28:25;;;;;;;3.63;3.20;;;;;;;17.16;72.09;98724.97;4953828;28;39735;-86
2023/05/12 08:30:52;;;;;;;4.30;3.90;;;;;;;17.36;72.16;98768.66;4954438;28;41890;-87
2023/05/12 08:33:21;;;;;;;3.67;3.37;;;;;;;17.27;72.67;98768.66;4971273;28;42920;-85
2023/05/12 08:35:49;;;;;;;4.20;3.70;;;;;;;17.14;72.81;98774.28;4971440;28;42327;-83
2023/05/12 08:38:17;;;;;;;3.70;3.40;;;;;;;17.08;73.81;98772.13;4953535;28;39333;-84
2023/05/12 08:40:53;;;;;;;3.60;3.30;;;;;;;16.93;73.60;98763.69;4938536;28;40531;-87
2023/05/12 08:43:25;;;;;;;4.43;3.73;;;;;;;16.96;73.84;98775.91;4951936;28;42836;-86
2023/05/12 08:45:56;;;;;;;3.97;3.63;;;;;;;17.05;74.88;98770.59;4955600;28;42033;-82
2023/05/12 08:48:27;;;;;;;4.10;3.53;;;;;;;17.01;74.68;98768.34;4957446;28;40026;-83
2023/05/12 08:50:55;;;;;;;4.40;3.93;;;;;;;17.11;73.66;98771.88;4958342;28;40639;-81
2023/05/12 08:53:24;;;;;;;6.83;3.13;;;;;;;17.14;74.49;98769.75;4957274;28;41634;-89
2023/05/12 08:55:53;;;;;;;5.53;3.80;;;;;;;17.18;73.70;98789.06;4941246;28;41523;-87
2023/05/12 08:58:20;;;;;;;4.53;3.50;;;;;;;17.05;74.55;98754.56;4943703;28;40029;-87
2023/05/12 09:00:50;;;;;;;5.43;3.93;;;;;;;17.22;74.00;98785.97;4941583;28;40701;-87
2023/05/12 09:03:20;;;;;;;3.60;3.27;;;;;;;17.09;74.55;98736.38;4942334;28;44020;-81
2023/05/12 09:05:49;;;;;;;3.73;3.37;;;;;;;17.56;73.75;98781.03;4973396;28;42637;-84
2023/05/12 09:08:17;;;;;;;3.63;3.33;;;;;;;17.97;73.84;98797.81;4957218;28;40212;-83
2023/05/12 09:10:45;;;;;;;4.00;3.67;;;;;;;18.08;72.79;98786.91;4956945;28;40742;-85
2023/05/12 09:13:59;;;;;;;4.10;3.67;;;;;;;18.23;71.73;98806.91;4955024;28;42864;-82
2023/05/12 09:16:30;;;;;;;3.67;3.20;;;;;;;18.45;71.62;98800.34;4940114;28;41508;-87
2023/05/12 09:18:59;;;;;;;3.67;3.37;;;;;;;18.70;71.85;98793.50;4955972;28;41828;-84
2023/05/12 09:21:28;;;;;;;3.43;3.17;;;;;;;19.07;70.36;98811.38;4937456;28;40922;-83
2023/05/12 09:23:57;;;;;;;4.10;3.33;;;;;;;19.24;69.71;98807.88;4937713;28;41770;-87
2023/05/12 09:26:26;;;;;;;4.27;3.50;;;;;;;19.26;69.44;98800.53;4925003;28;41273;-88
2023/05/12 09:28:55;;;;;;;3.27;2.90;;;;;;;19.37;67.73;98822.63;4957233;28;40260;-82
2023/05/12 09:31:26;;;;;;;3.07;2.87;;;;;;;19.45;67.93;98821.84;4956433;28;42577;-81
2023/05/12 09:33:53;;;;;;;4.33;2.97;;;;;;;19.52;67.69;98828.38;4956468;28;42634;-79
2023/05/12 09:36:22;;;;;;;3.37;2.90;;;;;;;19.77;66.00;98825.91;4953603;28;41487;-82
2023/05/12 09:39:03;;;;;;;3.83;2.30;;;;;;;19.79;65.26;98821.19;4937772;28;38558;-80
2023/05/12 09:41:31;;;;;;;3.03;2.83;;;;;;;19.99;66.80;98817.34;4940130;28;40760;-89
2023/05/12 09:43:59;;;;;;;6.70;3.40;;;;;;;20.29;66.01;98816.88;4956603;28;41908;-82
2023/05/12 09:46:27;;;;;;;3.93;3.20;;;;;;;20.60;64.91;98829.88;4955934;28;41183;-80
2023/05/12 09:48:56;;;;;;;2.90;2.50;;;;;;;20.75;62.56;98822.91;4956147;28;39882;-83
2023/05/12 09:51:25;;;;;;;2.97;2.70;;;;;;;21.23;62.03;98830.34;4955728;28;41814;-86
2023/05/12 09:53:53;;;;;;;3.07;2.47;;;;;;;21.41;59.67;98851.75;4973196;28;43170;-82
2023/05/12 09:56:23;;;;;;;3.40;2.77;;;;;;;21.40;59.00;98840.16;4956006;28;41489;-85
2023/05/12 09:58:51;;;;;;;3.10;2.80;;;;;;;21.46;58.21;98850.28;4956170;28;39268;-82
2023/05/12 10:01:20;;;;;;;3.00;2.67;;;;;;;21.14;58.44;98832.13;4956149;28;41569;-82
2023/05/12 10:03:51;;;;;;;4.97;2.60;;;;;;;20.86;60.12;98833.38;4940911;28;41900;-82
2023/05/12 10:06:23;;;;;;;2.63;2.43;;;;;;;20.73;60.54;98820.38;4941331;28;41182;-81
2023/05/12 10:08:54;;;;;;;3.33;2.87;;;;;;;21.23;61.41;98832.19;4972579;28;41293;-86
2023/05/12 10:11:23;;;;;;;2.53;2.33;;;;;;;21.47;59.34;98813.41;4950619;28;42678;-89
2023/05/12 10:13:52;;;;;;;2.43;2.23;;;;;;;21.88;57.09;98833.97;4921374;28;42125;-85
2023/05/12 10:16:21;;;;;;;2.40;2.20;;;;;;;21.88;55.43;98847.44;4923561;28;40928;-84
2023/05/12 10:18:50;;;;;;;3.00;2.07;;;;;;;21.65;57.01;98832.94;4941184;28;39209;-83
2023/05/12 10:21:19;;;;;;;2.40;2.20;;;;;;;21.63;57.35;98847.63;4958092;28;42256;-86
2023/05/12 10:23:47;;;;;;;2.87;2.67;;;;;;;21.72;55.10;98863.63;4939545;28;42828;-84
2023/05/12 10:26:16;;;;;;;2.30;2.10;;;;;;;21.80;55.43;98844.75;4937777;28;41130;-84
2023/05/12 10:28:46;;;;;;;2.63;1.90;;;;;;;22.13;54.64;98842.13;4920946;28;38402;-82
2023/05/12 10:31:14;;;;;;;3.87;2.10;;;;;;;22.10;53.54;98847.84;4938783;28;42372;-89
2023/05/12 10:33:42;;;;;;;2.07;1.87;;;;;;;22.07;54.27;98861.66;4956225;28;44011;-88
2023/05/12 10:36:19;;;;;;;4.50;2.20;;;;;;;21.56;56.30;98830.41;4940268;28;40861;-85
2023/05/12 10:38:49;;;;;;;2.73;2.20;;;;;;;20.96;56.41;98857.47;4940557;28;40003;-86
2023/05/12 10:41:28;;;;;;;2.67;2.20;;;;;;;20.51;59.49;98847.00;4937872;28;42123;-86
2023/05/12 10:43:57;;;;;;;2.63;2.20;;;;;;;20.28;61.21;98825.94;4936181;28;41651;-86
2023/05/12 10:46:26;;;;;;;2.60;2.40;;;;;;;20.25;62.21;98831.66;4923288;28;41143;-81
2023/05/12 10:48:55;;;;;;;3.77;2.57;;;;;;;20.41;62.22;98829.09;4955399;28;40360;-82
2023/05/12 10:51:25;;;;;;;2.40;2.13;;;;;;;20.67;61.90;98836.28;4939233;28;41809;-84
2023/05/12 10:53:56;;;;;;;3.23;2.50;;;;;;;20.94;61.79;98822.63;4955408;28;43198;-84
2023/05/12 10:56:25;;;;;;;3.07;2.73;;;;;;;21.35;61.56;98841.66;4954709;28;41376;-83
2023/05/12 10:59:11;;;;;;;2.33;2.13;;;;;;;21.74;61.10;98848.16;4938312;28;40059;-80
2023/05/12 11:01:39;;;;;;;3.03;2.23;;;;;;;21.75;56.55;98860.63;4949463;28;43587;-83
2023/05/12 11:04:14;;;;;;;2.27;2.07;;;;;;;21.85;57.94;98855.06;4952068;28;43421;-84
2023/05/12 11:06:44;;;;;;;2.47;1.93;;;;;;;21.97;56.86;98863.66;4920042;28;41933;-86
2023/05/12 11:09:12;;;;;;;2.57;2.23;;;;;;;21.93;56.46;98854.22;4935843;28;41001;-85
2023/05/12 11:11:40;;;;;;;2.50;2.30;;;;;;;21.91;55.45;98851.66;4951725;28;42108;-83
2023/05/12 11:14:10;;;;;;;2.50;2.30;;;;;;;22.02;55.95;98845.13;4919998;28;42194;-83
2023/05/12 11:16:42;;;;;;;2.60;2.33;;;;;;;22.31;55.73;98844.63;4954702;28;42335;-84
2023/05/12 11:19:10;;;;;;;2.57;2.37;;;;;;;22.56;53.31;98876.81;4938825;28;39247;-82
2023/05/12 11:21:39;;;;;;;2.03;1.87;;;;;;;22.96;51.63;98888.56;4950598;28;41085;-83
2023/05/12 11:24:09;;;;;;;2.20;2.00;;;;;;;23.18;51.88;98874.28;4935680;28;42838;-85
2023/05/12 11:26:36;;;;;;;2.47;2.27;;;;;;;23.68;53.05;98875.75;4936423;28;41814;-83
2023/05/12 11:29:04;;;;;;;3.63;2.17;;;;;;;23.97;49.69;98900.22;4919144;28;38873;-82
2023/05/12 11:31:33;;;;;;;2.40;2.20;;;;;;;24.19;49.51;98898.53;4956426;28;42471;-79
2023/05/12 11:34:06;;;;;;;2.90;2.40;;;;;;;24.51;47.19;98920.97;4954349;28;42771;-81
2023/05/12 11:36:37;;;;;;;2.20;2.10;;;;;;;24.85;48.18;98885.25;4949511;28;43337;-79
2023/05/12 11:39:06;;;;;;;2.20;2.00;;;;;;;25.20;47.44;98908.94;4952199;28;39781;-82
2023/05/12 11:41:33;;;;;;;2.10;2.00;;;;;;;25.11;47.21;98906.47;4939392;28;41162;-79
2023/05/12 11:44:12;;;;;;;2.37;2.17;;;;;;;24.94;48.17;98903.13;4954221;28;42557;-81
2023/05/12 11:46:42;;;;;;;2.10;1.93;;;;;;;24.39;47.06;98893.47;4938400;28;41335;-80
2023/05/12 11:49:11;;;;;;;2.23;2.03;;;;;;;23.80;47.35;98901.34;4933366;28;41120;-82
2023/05/12 11:51:42;;;;;;;2.03;1.80;;;;;;;23.36;49.28;98881.31;4934950;28;40606;-82